X  Close Metar Aviation Weather Data        KGPT Gulfport- Biloxi, Mississippi International Airport
Temperature
17.2°C Temperature
9.4°C Dewpoint
60% Humidity



Wind
6 MPH
9 KM/H
3 M/S
5 KTS



170°
S
Current Conditions

Sunny Sunny
Pressure 1021 (hPa) - 30.16 (inHg)
Visibility 10 (mile) - 16 (km)
Airport
Airport-code KGPT

Location: Gulfport- Biloxi, Mississippi International Airport
Distance: 14 (mi)

Metar:
METAR KGPT 151953Z 17005KT 10SM CLR 17/09 A3016 RMK AO2 SLP214 T01720094

Time: 15-02-2024 13:53 CST